Time;durP1;ratioP1;P1;durP2;ratioP2;P2;SDS_P1;SDS_P2;PMS_P1;PMS_P2;Temp;Humidity;BMP_temperature;BMP_pressure;BME280_temperature;BME280_humidity;BME280_pressure;Samples;Min_cycle;Max_cycle;Signal;HPM_P1;HPM_P2
2022/01/18 00:01:57;;;;;;;730.37;665.57;;;6.50;99.90;;;;;;5035910;28;20464;-81
2022/01/18 00:04:28;;;;;;;737.67;671.90;;;6.60;99.90;;;;;;5035631;28;20479;-80
2022/01/18 00:06:55;;;;;;;738.53;672.97;;;6.50;99.90;;;;;;5035686;28;20532;-80
2022/01/18 00:09:24;;;;;;;746.60;680.50;;;6.50;99.90;;;;;;5035218;28;20984;-80
2022/01/18 00:11:58;;;;;;;735.97;670.07;;;6.60;99.90;;;;;;5035973;28;20492;-80
2022/01/18 00:14:27;;;;;;;731.13;666.60;;;6.50;99.90;;;;;;5035700;28;20539;-80
2022/01/18 00:17:04;;;;;;;736.73;672.53;;;6.50;99.90;;;;;;5035594;28;20466;-80
2022/01/18 00:19:34;;;;;;;737.47;672.33;;;6.60;99.90;;;;;;5035554;28;20504;-80
2022/01/18 00:22:10;;;;;;;741.97;675.30;;;6.60;99.90;;;;;;5035788;28;20539;-80
2022/01/18 00:24:39;;;;;;;740.13;674.67;;;6.60;99.90;;;;;;5035817;28;20456;-80
2022/01/18 00:27:11;;;;;;;739.17;673.97;;;6.60;99.90;;;;;;5035633;28;20452;-80
2022/01/18 00:29:48;;;;;;;735.87;669.97;;;6.70;99.90;;;;;;5035199;28;20484;-80
2022/01/18 00:32:23;;;;;;;731.00;666.10;;;6.60;99.90;;;;;;5035588;28;20471;-80
2022/01/18 00:34:55;;;;;;;729.60;663.10;;;6.60;99.90;;;;;;5036018;28;20448;-80
2022/01/18 00:37:32;;;;;;;730.33;664.93;;;6.50;99.90;;;;;;5035483;28;20475;-80
2022/01/18 00:39:59;;;;;;;741.90;675.30;;;6.50;99.90;;;;;;5035019;28;20472;-80
2022/01/18 00:42:26;;;;;;;737.63;671.07;;;6.60;99.90;;;;;;5035359;28;20831;-80
2022/01/18 00:44:56;;;;;;;733.40;667.60;;;6.60;99.90;;;;;;5035333;28;20568;-82
2022/01/18 00:47:27;;;;;;;731.83;667.10;;;6.70;99.90;;;;;;5035603;28;20452;-80
2022/01/18 00:50:00;;;;;;;732.77;666.90;;;6.70;99.90;;;;;;5035048;28;20996;-80
2022/01/18 00:52:52;;;;;;;732.70;668.00;;;6.60;99.90;;;;;;5035196;28;20830;-81
2022/01/18 00:56:07;;;;;;;732.03;666.27;;;6.60;99.90;;;;;;5035248;28;20530;-82
2022/01/18 00:58:34;;;;;;;729.23;662.33;;;6.60;99.90;;;;;;5034395;28;20518;-80
2022/01/18 01:01:27;;;;;;;729.23;663.30;;;6.50;99.90;;;;;;5035249;28;20973;-80
2022/01/18 01:04:02;;;;;;;735.73;667.97;;;6.50;99.90;;;;;;5031082;28;20547;-81
2022/01/18 01:06:42;;;;;;;723.10;655.77;;;6.50;99.90;;;;;;5035299;28;20456;-80
2022/01/18 01:09:11;;;;;;;733.73;666.37;;;6.60;99.90;;;;;;5034378;28;20488;-80
2022/01/18 01:11:41;;;;;;;738.57;670.07;;;6.50;99.90;;;;;;5034919;28;21104;-80
2022/01/18 01:14:27;;;;;;;735.20;666.50;;;6.60;99.90;;;;;;5035020;28;20456;-81
2022/01/18 01:17:05;;;;;;;734.70;666.57;;;6.60;99.90;;;;;;5035212;28;20452;-80
2022/01/18 01:32:28;;;;;;;742.17;674.87;;;6.60;99.90;;;;;;5034581;28;20554;-80
2022/01/18 01:34:57;;;;;;;754.30;683.77;;;6.50;99.90;;;;;;5034475;28;20474;-80
2022/01/18 01:43:20;;;;;;;728.33;658.57;;;6.40;99.90;;;;;;5034403;28;20440;-80
2022/01/18 01:45:49;;;;;;;750.67;677.13;;;6.40;99.90;;;;;;5034222;28;20520;-80
2022/01/18 01:48:43;;;;;;;;;;;;;;;;;;;;;
2022/01/18 01:51:15;;;;;;;748.33;675.97;;;6.40;99.90;;;;;;5034103;28;20452;-81
2022/01/18 01:53:49;;;;;;;735.80;663.50;;;6.30;99.90;;;;;;5035416;28;20470;-80
2022/01/18 01:56:24;;;;;;;749.60;677.00;;;6.30;99.90;;;;;;5033926;28;20467;-79
2022/01/18 01:58:53;;;;;;;741.53;667.17;;;6.50;99.90;;;;;;5033900;28;20475;-79
2022/01/18 02:01:43;;;;;;;736.73;661.63;;;6.40;99.90;;;;;;5034050;28;20502;-79
2022/01/18 02:04:12;;;;;;;738.77;664.07;;;6.40;99.90;;;;;;5033636;28;20448;-80
2022/01/18 02:06:42;;;;;;;749.60;673.50;;;6.30;99.90;;;;;;5033931;28;20900;-80
2022/01/18 02:09:29;;;;;;;749.70;673.87;;;6.40;99.90;;;;;;5033500;28;20520;-79
2022/01/18 02:12:05;;;;;;;746.90;670.60;;;6.30;99.90;;;;;;5034063;28;20460;-79
2022/01/18 02:14:39;;;;;;;736.13;661.53;;;6.40;99.90;;;;;;5033933;28;20456;-79
2022/01/18 02:22:41;;;;;;;742.50;667.40;;;6.40;99.90;;;;;;5033705;28;20435;-79
2022/01/18 02:25:08;;;;;;;747.80;673.00;;;6.40;99.90;;;;;;5033394;28;20452;-79
2022/01/18 02:27:36;;;;;;;759.97;684.77;;;6.30;99.90;;;;;;5033357;28;20459;-80
2022/01/18 02:30:05;;;;;;;754.80;681.13;;;6.40;99.90;;;;;;5032695;28;20476;-79
2022/01/18 02:32:32;;;;;;;752.17;678.03;;;6.30;99.90;;;;;;5033579;28;20901;-79
2022/01/18 02:35:00;;;;;;;745.60;671.33;;;6.30;99.90;;;;;;5033681;28;20452;-80
2022/01/18 02:37:27;;;;;;;733.23;658.67;;;6.30;99.90;;;;;;5033567;28;20829;-79
2022/01/18 02:39:57;;;;;;;747.10;672.40;;;6.30;99.90;;;;;;5032613;28;20468;-78
2022/01/18 02:42:43;;;;;;;750.93;675.00;;;6.30;99.90;;;;;;5033610;28;20543;-79
2022/01/18 02:45:16;;;;;;;752.13;674.97;;;6.40;99.90;;;;;;5033526;28;20890;-79
2022/01/18 02:47:59;;;;;;;751.30;673.83;;;6.40;99.90;;;;;;5033170;28;20456;-79
2022/01/18 02:50:25;;;;;;;752.37;675.47;;;6.30;99.90;;;;;;5034423;28;20491;-79
2022/01/18 02:52:59;;;;;;;746.70;669.77;;;6.30;99.90;;;;;;5034589;28;20463;-79
2022/01/18 02:55:37;;;;;;;743.40;666.83;;;6.20;99.90;;;;;;5034008;28;20550;-79
2022/01/18 02:58:08;;;;;;;761.83;684.37;;;6.30;99.90;;;;;;5033339;28;20562;-79
2022/01/18 03:03:10;;;;;;;765.93;688.53;;;6.30;99.90;;;;;;5033226;28;20538;-79
2022/01/18 03:03:32;;;;;;;779.97;702.47;;;6.30;99.90;;;;;;5033242;28;20444;-79
2022/01/18 03:06:01;;;;;;;786.33;707.27;;;6.30;99.90;;;;;;5033420;28;20452;-79
2022/01/18 03:08:28;;;;;;;769.83;690.73;;;6.20;99.90;;;;;;5034433;28;20472;-79
2022/01/18 03:11:00;;;;;;;766.77;688.67;;;6.20;99.90;;;;;;5034112;28;20563;-79
2022/01/18 03:13:29;;;;;;;764.43;685.93;;;6.20;99.90;;;;;;5034088;28;20563;-79
2022/01/18 03:15:55;;;;;;;772.07;693.40;;;6.30;99.90;;;;;;5033535;28;20456;-79
2022/01/18 03:18:22;;;;;;;772.53;694.50;;;6.20;99.90;;;;;;5032883;28;20479;-78
2022/01/18 03:20:55;;;;;;;798.07;718.57;;;6.30;99.90;;;;;;5033234;28;20452;-79
2022/01/18 03:23:23;;;;;;;766.93;689.17;;;6.30;99.90;;;;;;5032995;28;20487;-80
2022/01/18 03:25:55;;;;;;;771.97;692.37;;;6.20;99.90;;;;;;5033605;28;20495;-80
2022/01/18 03:28:27;;;;;;;774.90;695.57;;;6.20;99.90;;;;;;5033289;28;20476;-78
2022/01/18 03:30:57;;;;;;;785.87;707.03;;;6.30;99.90;;;;;;5033003;28;20479;-80
2022/01/18 03:33:29;;;;;;;800.80;719.63;;;6.20;99.90;;;;;;5033199;28;20492;-79
2022/01/18 03:35:56;;;;;;;793.97;714.67;;;6.20;99.90;;;;;;5033215;28;20559;-79
2022/01/18 03:38:29;;;;;;;792.80;712.50;;;6.20;99.90;;;;;;5033037;28;20950;-79
2022/01/18 03:40:56;;;;;;;781.40;701.53;;;6.20;99.90;;;;;;5036266;28;20460;-79
2022/01/18 03:43:27;;;;;;;796.83;714.37;;;6.20;99.90;;;;;;5036711;28;20459;-79
2022/01/18 03:46:00;;;;;;;798.77;716.70;;;6.10;99.90;;;;;;5036678;28;20556;-79
2022/01/18 03:48:31;;;;;;;796.83;714.67;;;6.10;99.90;;;;;;5036002;28;20479;-79
2022/01/18 03:50:58;;;;;;;789.00;708.50;;;6.10;99.90;;;;;;5036933;28;20506;-79
2022/01/18 03:53:26;;;;;;;790.43;708.67;;;6.10;99.90;;;;;;5036314;28;20471;-79
2022/01/18 03:55:53;;;;;;;791.27;709.50;;;6.10;99.90;;;;;;5036324;28;20487;-79
2022/01/18 03:58:20;;;;;;;787.00;703.87;;;6.20;99.90;;;;;;5035786;28;20997;-79
2022/01/18 04:00:49;;;;;;;795.53;713.67;;;6.20;99.90;;;;;;5036553;28;20456;-79
2022/01/18 04:03:16;;;;;;;792.30;710.37;;;6.20;99.90;;;;;;5036200;28;20452;-79
2022/01/18 04:05:46;;;;;;;785.47;703.80;;;6.10;99.90;;;;;;5036552;28;20452;-79
2022/01/18 04:08:16;;;;;;;792.90;710.90;;;6.20;99.90;;;;;;5035711;28;20479;-78
2022/01/18 04:10:46;;;;;;;797.10;714.10;;;6.10;99.90;;;;;;5036321;28;20573;-79
2022/01/18 04:13:13;;;;;;;783.17;704.27;;;6.20;99.90;;;;;;5036091;28;20484;-79
2022/01/18 04:15:42;;;;;;;764.57;684.00;;;6.30;99.90;;;;;;5036669;28;20523;-79
2022/01/18 04:18:22;;;;;;;766.70;686.27;;;6.20;99.90;;;;;;5035598;28;20483;-78
2022/01/18 04:29:12;;;;;;;783.47;700.70;;;6.20;99.90;;;;;;5034922;28;20497;-79
2022/01/18 04:31:39;;;;;;;778.17;699.27;;;6.20;99.90;;;;;;5036011;28;20448;-79
2022/01/18 04:34:10;;;;;;;791.40;713.90;;;6.30;99.90;;;;;;5035304;28;20566;-79
2022/01/18 04:36:37;;;;;;;776.67;698.43;;;6.20;99.90;;;;;;5035299;28;20455;-79
2022/01/18 04:39:04;;;;;;;788.20;708.20;;;6.10;99.90;;;;;;5035197;28;20483;-79
2022/01/18 04:41:34;;;;;;;778.07;699.90;;;6.20;99.90;;;;;;5035726;28;20459;-79
2022/01/18 04:48:23;;;;;;;766.47;689.27;;;6.20;99.90;;;;;;5035327;28;20452;-79
2022/01/18 04:49:52;;;;;;;784.00;704.73;;;6.10;99.90;;;;;;5034552;28;20555;-79
2022/01/18 04:52:29;;;;;;;783.27;704.27;;;6.20;99.90;;;;;;5034936;28;20455;-79
2022/01/18 04:55:03;;;;;;;768.33;689.87;;;6.10;99.90;;;;;;5035392;28;20456;-79
2022/01/18 05:00:16;;;;;;;773.83;695.07;;;6.20;99.90;;;;;;5034800;28;20423;-80
2022/01/18 05:02:43;;;;;;;784.50;705.10;;;6.10;99.90;;;;;;5034893;28;20460;-80
2022/01/18 05:05:22;;;;;;;793.67;714.07;;;6.20;99.90;;;;;;5034561;28;20543;-79
2022/01/18 05:07:52;;;;;;;781.93;703.17;;;6.20;99.90;;;;;;5034304;28;20891;-79
2022/01/18 05:10:21;;;;;;;751.90;675.10;;;6.20;99.90;;;;;;5033788;28;20502;-80
2022/01/18 05:12:51;;;;;;;762.67;684.50;;;6.20;99.90;;;;;;5033855;28;21019;-80
2022/01/18 05:15:37;;;;;;;755.80;677.47;;;6.20;99.90;;;;;;5034943;28;20547;-80
2022/01/18 05:21:09;;;;;;;776.00;698.47;;;6.20;99.90;;;;;;5034393;28;20448;-81
2022/01/18 05:23:35;;;;;;;797.20;718.13;;;6.00;99.90;;;;;;5035056;28;20475;-79
2022/01/18 05:26:02;;;;;;;783.67;705.57;;;6.10;99.90;;;;;;5034964;28;20475;-79
2022/01/18 05:28:28;;;;;;;763.33;685.70;;;6.00;99.90;;;;;;5034536;28;20217;-79
2022/01/18 05:30:55;;;;;;;793.83;714.23;;;6.00;99.90;;;;;;5034554;28;20483;-79
2022/01/18 05:33:25;;;;;;;779.37;700.97;;;6.00;99.90;;;;;;5033454;28;20483;-79
2022/01/18 05:35:54;;;;;;;768.10;688.90;;;5.90;99.90;;;;;;5034729;28;20511;-79
2022/01/18 05:38:21;;;;;;;776.83;697.00;;;6.10;99.90;;;;;;5033976;28;20992;-79
2022/01/18 05:40:49;;;;;;;773.30;693.87;;;5.90;99.90;;;;;;5034650;28;20452;-80
2022/01/18 05:43:16;;;;;;;763.30;683.80;;;5.90;99.90;;;;;;5034377;28;20452;-79
2022/01/18 05:45:43;;;;;;;762.57;680.13;;;5.90;99.90;;;;;;5034809;28;20452;-79
2022/01/18 05:48:10;;;;;;;767.70;687.20;;;6.00;99.90;;;;;;5034182;28;20472;-78
2022/01/18 05:50:36;;;;;;;770.97;689.93;;;5.90;99.90;;;;;;5034309;28;20475;-79
2022/01/18 05:53:04;;;;;;;754.70;671.90;;;5.90;99.90;;;;;;5034054;28;20453;-79
2022/01/18 05:55:31;;;;;;;764.13;666.30;;;6.00;99.90;;;;;;5034715;28;20452;-79
2022/01/18 05:58:00;;;;;;;759.97;677.37;;;6.00;99.90;;;;;;5035213;28;20472;-80
2022/01/18 06:00:28;;;;;;;754.27;670.10;;;6.00;99.90;;;;;;5034952;28;20507;-79
2022/01/18 06:03:02;;;;;;;751.90;669.83;;;6.00;99.90;;;;;;5033637;28;20499;-79
2022/01/18 06:08:15;;;;;;;761.83;677.30;;;5.90;99.90;;;;;;5033285;28;20459;-79
2022/01/18 06:10:42;;;;;;;745.20;664.60;;;5.90;99.90;;;;;;5034607;28;20487;-79
2022/01/18 06:13:09;;;;;;;745.43;665.30;;;5.90;99.90;;;;;;5033414;28;20834;-80
2022/01/18 06:15:36;;;;;;;758.93;677.10;;;5.80;99.90;;;;;;5034061;28;20543;-80
2022/01/18 06:18:03;;;;;;;746.50;664.80;;;5.90;99.90;;;;;;5034338;28;20479;-80
2022/01/18 06:20:30;;;;;;;756.57;673.63;;;5.90;99.90;;;;;;5033870;28;20463;-80
2022/01/18 06:22:57;;;;;;;765.43;681.57;;;5.90;99.90;;;;;;5033689;28;20456;-80
2022/01/18 06:25:32;;;;;;;759.57;675.97;;;5.90;99.90;;;;;;5033848;28;20452;-79
2022/01/18 06:28:04;;;;;;;760.80;677.47;;;6.00;99.90;;;;;;5034391;28;20823;-80
2022/01/18 06:30:33;;;;;;;758.17;675.77;;;5.90;99.90;;;;;;5032966;28;21020;-79
2022/01/18 06:33:02;;;;;;;763.87;681.63;;;6.00;99.90;;;;;;5034040;28;20885;-79
2022/01/18 06:35:30;;;;;;;753.83;673.30;;;6.00;99.90;;;;;;5033802;28;20556;-79
2022/01/18 06:37:57;;;;;;;763.43;679.50;;;5.90;99.90;;;;;;5034003;28;20503;-79
2022/01/18 06:40:27;;;;;;;758.00;674.27;;;5.90;99.90;;;;;;5033207;28;20454;-79
2022/01/18 06:43:00;;;;;;;761.43;678.27;;;6.00;99.90;;;;;;5034535;28;20463;-79
2022/01/18 06:45:27;;;;;;;755.10;672.47;;;6.00;99.90;;;;;;5033255;28;20547;-81
2022/01/18 06:47:56;;;;;;;749.80;668.37;;;5.90;99.90;;;;;;5035723;28;20463;-79
2022/01/18 06:50:22;;;;;;;768.17;685.97;;;6.00;99.90;;;;;;5034027;28;20519;-80
2022/01/18 06:52:53;;;;;;;761.63;678.57;;;6.00;99.90;;;;;;5033709;28;20494;-80
2022/01/18 06:55:22;;;;;;;754.70;672.23;;;6.10;99.90;;;;;;5033888;28;20944;-79
2022/01/18 06:58:04;;;;;;;;;;;;;;;;;;;;;
2022/01/18 07:00:37;;;;;;;766.03;682.90;;;5.90;99.90;;;;;;5033247;28;20463;-80
2022/01/18 07:12:07;;;;;;;;;;;;;;;;;;;;;
2022/01/18 07:17:31;;;;;;;753.17;673.33;;;6.00;99.90;;;;;;5036237;28;20460;-79
2022/01/18 07:20:00;;;;;;;758.57;680.20;;;6.00;99.90;;;;;;5036564;28;20855;-79
2022/01/18 07:22:26;;;;;;;754.90;678.50;;;5.90;99.90;;;;;;5035516;28;20448;-79
2022/01/18 07:24:57;;;;;;;750.90;672.73;;;5.90;99.90;;;;;;5036740;28;20452;-79
2022/01/18 07:27:28;;;;;;;755.40;677.67;;;5.90;99.90;;;;;;5035536;28;20478;-78
2022/01/18 07:30:13;;;;;;;;;;;;;;;;;;;;;
2022/01/18 07:33:12;;;;;;;765.33;687.80;;;5.80;99.90;;;;;;5030961;28;20448;-79
2022/01/18 07:36:03;;;;;;;;;;;;;;;;;;;;;
2022/01/18 07:38:55;;;;;;;754.20;674.33;;;5.80;99.90;;;;;;5033384;28;20496;-78
2022/01/18 07:44:28;;;;;;;748.53;668.23;;;5.80;99.90;;;;;;5035479;28;20547;-82
2022/01/18 07:47:23;;;;;;;757.60;678.90;;;5.70;99.90;;;;;;5037705;28;20456;-79
2022/01/18 07:49:58;;;;;;;756.10;676.90;;;5.80;99.90;;;;;;5036905;28;20535;-80
2022/01/18 07:52:40;;;;;;;755.67;675.73;;;5.80;99.90;;;;;;5037414;28;20853;-83
2022/01/18 07:55:19;;;;;;;751.77;672.03;;;5.90;99.90;;;;;;5038423;28;20513;-82
2022/01/18 07:57:49;;;;;;;754.30;674.73;;;5.90;99.90;;;;;;5036231;28;20444;-81
2022/01/18 08:00:38;;;;;;;755.53;676.13;;;6.00;99.90;;;;;;5038232;28;20460;-83
2022/01/18 08:03:19;;;;;;;755.47;676.40;;;6.00;99.90;;;;;;5042588;28;20463;-83
2022/01/18 08:05:48;;;;;;;756.83;678.77;;;6.00;99.90;;;;;;5041728;28;20547;-82
2022/01/18 08:08:19;;;;;;;758.97;682.00;;;6.00;99.90;;;;;;5042464;28;20484;-82
2022/01/18 08:10:51;;;;;;;762.53;685.50;;;6.10;99.90;;;;;;5042555;28;21102;-82
2022/01/18 08:13:24;;;;;;;758.53;681.50;;;6.00;99.90;;;;;;5042694;28;20555;-83
2022/01/18 08:16:33;;;;;;;758.67;682.37;;;6.10;99.90;;;;;;5041170;28;20479;-82
2022/01/18 08:19:33;;;;;;;757.70;680.90;;;6.20;99.90;;;;;;5042867;28;20476;-82
2022/01/18 08:22:02;;;;;;;744.10;668.20;;;6.20;99.90;;;;;;5042439;28;20472;-83
2022/01/18 08:24:30;;;;;;;763.50;688.80;;;6.40;99.90;;;;;;5042495;28;20650;-82
2022/01/18 08:27:14;;;;;;;760.70;686.43;;;6.40;99.90;;;;;;5040541;28;20452;-83
2022/01/18 08:29:49;;;;;;;749.10;674.87;;;6.50;99.90;;;;;;5040468;28;20480;-82
2022/01/18 08:32:25;;;;;;;754.90;682.40;;;6.50;99.90;;;;;;5039042;28;20495;-82
2022/01/18 08:35:00;;;;;;;754.73;680.30;;;6.60;99.90;;;;;;5039918;28;20456;-82
2022/01/18 08:37:30;;;;;;;752.73;678.57;;;6.50;99.90;;;;;;5041645;28;20542;-82
2022/01/18 08:40:10;;;;;;;756.10;683.30;;;6.50;99.90;;;;;;5042616;28;20483;-83
2022/01/18 08:42:37;;;;;;;752.77;679.00;;;6.50;99.90;;;;;;5041063;28;20956;-82
2022/01/18 08:45:34;;;;;;;;;;;;;;;;;;;;;
2022/01/18 08:48:26;;;;;;;;;;;;;;;;;;;;;
2022/01/18 08:51:01;;;;;;;752.93;679.50;;;6.60;99.90;;;;;;5043956;28;20474;-83
2022/01/18 08:53:52;;;;;;;743.70;672.33;;;6.80;99.90;;;;;;5042282;28;20813;-83
2022/01/18 08:56:22;;;;;;;733.87;663.17;;;6.70;99.90;;;;;;4979547;28;20470;-83
2022/01/18 08:59:30;;;;;;;735.57;665.00;;;6.80;99.90;;;;;;4980143;28;20546;-83
2022/01/18 09:02:42;;;;;;;737.27;668.00;;;6.90;99.90;;;;;;5031491;28;20819;-84
2022/01/18 09:05:38;;;;;;;740.40;671.80;;;7.00;99.90;;;;;;5038840;28;20461;-82
2022/01/18 09:12:05;;;;;;;743.20;676.40;;;7.20;99.90;;;;;;5037685;28;20888;-81
2022/01/18 09:15:16;;;;;;;759.00;693.37;;;7.20;99.90;;;;;;5041142;28;21057;-82
2022/01/18 09:17:48;;;;;;;760.63;697.33;;;7.30;99.90;;;;;;5035699;28;20468;-82
2022/01/18 09:20:43;;;;;;;;;;;;;;;;;;;;;
2022/01/18 09:23:43;;;;;;;747.73;690.47;;;7.30;99.90;;;;;;5038525;28;20889;-82
2022/01/18 09:32:22;;;;;;;737.60;687.13;;;7.40;99.90;;;;;;5036613;28;20483;-82
2022/01/18 09:35:01;;;;;;;727.93;679.50;;;7.50;99.90;;;;;;5036677;28;20456;-83
2022/01/18 09:37:42;;;;;;;719.37;673.07;;;7.50;99.90;;;;;;5036192;28;20502;-81
2022/01/18 09:40:18;;;;;;;716.80;671.20;;;7.60;99.90;;;;;;5037864;28;20502;-82
2022/01/18 09:43:22;;;;;;;713.17;667.27;;;7.60;99.90;;;;;;5038937;28;20448;-84
2022/01/18 09:45:52;;;;;;;707.30;664.90;;;7.70;99.90;;;;;;5040395;28;20505;-82
2022/01/18 09:48:24;;;;;;;671.90;633.70;;;7.80;99.90;;;;;;5039508;28;20456;-82
2022/01/18 09:50:54;;;;;;;649.37;612.97;;;8.00;99.90;;;;;;5038074;28;20483;-82
2022/01/18 09:53:21;;;;;;;560.17;531.57;;;8.40;99.90;;;;;;5037124;28;20835;-82
2022/01/18 09:56:11;;;;;;;454.67;434.03;;;8.40;99.90;;;;;;5039369;28;20503;-83
2022/01/18 09:59:04;;;;;;;457.90;437.40;;;8.60;99.90;;;;;;5040767;28;20544;-84
2022/01/18 10:01:40;;;;;;;413.67;394.53;;;8.70;99.90;;;;;;5040338;28;20450;-84
2022/01/18 10:08:11;;;;;;;;;;;;;;;;;;;;;
2022/01/18 10:11:10;;;;;;;;;;;;;;;;;;;;;
2022/01/18 10:14:08;;;;;;;240.03;229.40;;;8.80;99.90;;;;;;5040350;28;20452;-84
2022/01/18 10:17:13;;;;;;;228.43;218.17;;;8.90;99.90;;;;;;4979075;28;20510;-84
2022/01/18 10:20:19;;;;;;;;;;;;;;;;;;;;;
2022/01/18 10:26:35;;;;;;;344.57;330.20;;;8.80;99.90;;;;;;4951115;28;20474;-83
2022/01/18 10:29:46;;;;;;;317.27;304.50;;;8.90;99.90;;;;;;4987249;28;20482;-85
2022/01/18 10:36:10;;;;;;;234.57;224.33;;;9.00;99.90;;;;;;4956774;28;20486;-83
2022/01/18 10:48:51;;;;;;;172.17;163.63;;;9.30;99.90;;;;;;5037503;28;20499;-83
2022/01/18 10:51:32;;;;;;;130.57;123.47;;;9.30;99.90;;;;;;4982105;28;20446;-83
2022/01/18 10:54:43;;;;;;;51.93;46.53;;;9.40;99.90;;;;;;4981838;28;20451;-84
2022/01/18 10:57:52;;;;;;;;;;;;;;;;;;;;;
2022/01/18 11:04:26;;;;;;;;;;;;;;;;;;;;;
2022/01/18 11:10:54;;;;;;;45.50;41.13;;;9.40;99.90;;;;;;4991441;28;20463;-84
2022/01/18 11:17:37;;;;;;;;;;;;;;;;;;;;;
2022/01/18 11:23:25;;;;;;;38.53;32.60;;;9.50;99.00;;;;;;5029180;28;20436;-83
2022/01/18 11:26:02;;;;;;;35.67;32.07;;;9.60;99.00;;;;;;5043879;28;20642;-83
2022/01/18 11:32:36;;;;;;;30.60;21.30;;;9.70;98.50;;;;;;5035006;28;20480;-84
2022/01/18 11:45:38;;;;;;;33.53;20.20;;;10.20;95.20;;;;;;4924445;29;20460;-82
2022/01/18 11:48:17;;;;;;;38.93;18.37;;;10.20;95.70;;;;;;4947545;28;20471;-87
2022/01/18 11:57:43;;;;;;;31.27;17.53;;;10.40;94.80;;;;;;5038835;28;20464;-84
2022/01/18 12:00:45;;;;;;;31.10;17.30;;;10.50;94.50;;;;;;5042982;28;20533;-83
2022/01/18 12:04:06;;;;;;;31.97;20.37;;;10.10;94.40;;;;;;5040725;28;20455;-85
2022/01/18 12:07:04;;;;;;;33.50;16.43;;;10.50;94.80;;;;;;5035044;28;20483;-85
2022/01/18 12:09:48;;;;;;;24.00;14.63;;;11.20;92.90;;;;;;5040246;28;20887;-85
2022/01/18 12:12:49;;;;;;;30.77;14.43;;;11.60;90.20;;;;;;5040755;28;20970;-84
2022/01/18 12:15:52;;;;;;;25.70;12.77;;;11.50;86.10;;;;;;5039102;28;20453;-85
2022/01/18 12:18:55;;;;;;;24.40;12.43;;;11.40;85.10;;;;;;5038280;28;20849;-85
2022/01/18 12:21:33;;;;;;;27.80;15.20;;;11.20;85.80;;;;;;5038661;28;20464;-85
2022/01/18 12:37:13;;;;;;;24.23;14.00;;;11.10;85.30;;;;;;5041252;28;20452;-85
2022/01/18 12:40:14;;;;;;;31.17;14.37;;;10.80;84.10;;;;;;5021237;28;20476;-85
2022/01/18 12:53:10;;;;;;;29.87;14.23;;;11.00;83.80;;;;;;5033987;28;20554;-84
2022/01/18 12:56:05;;;;;;;24.70;12.40;;;11.10;82.50;;;;;;4977181;28;20979;-83
2022/01/18 12:59:08;;;;;;;34.60;12.40;;;11.70;80.60;;;;;;5039450;28;20526;-84
2022/01/18 13:05:41;;;;;;;25.97;13.63;;;12.70;74.80;;;;;;5012011;28;20999;-84
2022/01/18 13:09:06;;;;;;;30.87;14.53;;;12.30;75.00;;;;;;5039603;28;20468;-83
2022/01/18 13:15:35;;;;;;;26.93;13.57;;;12.60;73.20;;;;;;5005852;28;20448;-84
2022/01/18 13:31:19;;;;;;;22.67;9.83;;;14.10;58.70;;;;;;4977796;28;20871;-84
2022/01/18 13:33:57;;;;;;;22.83;10.87;;;14.00;56.30;;;;;;5042727;28;20470;-84
2022/01/18 13:37:13;;;;;;;27.00;11.87;;;13.40;59.20;;;;;;5037743;28;20455;-85
2022/01/18 13:40:17;;;;;;;;;;;;;;;;;;;;;
2022/01/18 13:43:08;;;;;;;35.37;12.13;;;12.30;63.10;;;;;;5038487;28;20924;-85
2022/01/18 13:45:39;;;;;;;26.27;12.37;;;12.20;64.40;;;;;;5034449;28;20449;-84
2022/01/18 13:48:12;;;;;;;21.47;11.20;;;12.10;65.20;;;;;;5032954;28;20476;-85
2022/01/18 13:50:45;;;;;;;26.80;10.87;;;12.10;66.10;;;;;;5033528;28;20825;-85
2022/01/18 13:53:16;;;;;;;37.60;13.50;;;11.90;65.80;;;;;;5033903;28;20479;-85
2022/01/18 13:55:51;;;;;;;20.57;11.53;;;11.60;67.50;;;;;;5035965;28;20456;-86
2022/01/18 13:58:29;;;;;;;24.77;12.00;;;11.30;67.90;;;;;;5038340;28;20488;-84
2022/01/18 14:01:10;;;;;;;23.90;11.57;;;10.80;71.30;;;;;;5035475;28;20460;-84
2022/01/18 14:03:48;;;;;;;;;;;;;;;;;;;;;
2022/01/18 14:06:43;;;;;;;28.90;12.03;;;10.20;75.40;;;;;;5036731;28;20449;-85
2022/01/18 14:09:12;;;;;;;25.77;12.90;;;10.20;77.10;;;;;;5037925;28;20518;-82
2022/01/18 14:21:22;;;;;;;29.33;12.77;;;9.70;80.70;;;;;;5095019;27;20617;-83
2022/01/18 14:24:15;;;;;;;;;;;;;;;;;;;;;
2022/01/18 14:27:23;;;;;;;28.93;14.97;;;9.50;84.70;;;;;;5098466;28;20458;-84
2022/01/18 14:33:19;;;;;;;25.73;12.57;;;9.70;84.30;;;;;;5074084;28;20462;-83
2022/01/18 14:35:50;;;;;;;24.60;13.23;;;9.90;84.20;;;;;;5098670;28;20477;-83
2022/01/18 14:38:37;;;;;;;33.57;14.30;;;9.80;83.20;;;;;;5098362;28;20480;-83
2022/01/18 14:41:18;;;;;;;30.23;13.50;;;9.90;83.80;;;;;;5092692;28;20472;-83
2022/01/18 14:47:28;;;;;;;25.67;13.87;;;9.90;82.40;;;;;;5090399;28;20482;-83
2022/01/18 14:53:41;;;;;;;24.40;13.67;;;9.70;82.30;;;;;;5046459;28;20475;-82
2022/01/18 15:02:52;;;;;;;;;;;;;;;;;;;;;
2022/01/18 15:05:34;;;;;;;32.00;15.43;;;9.50;87.70;;;;;;5091527;28;20445;-82
2022/01/18 15:08:15;;;;;;;31.37;15.60;;;9.50;88.10;;;;;;5094389;28;20500;-83
2022/01/18 15:10:53;;;;;;;33.47;13.80;;;9.40;88.00;;;;;;5090730;28;20446;-81
2022/01/18 15:13:23;;;;;;;25.73;13.57;;;9.40;87.40;;;;;;5092035;28;20867;-81
2022/01/18 15:15:57;;;;;;;36.33;17.00;;;9.20;87.10;;;;;;5090722;28;20499;-81
2022/01/18 15:18:27;;;;;;;28.17;25.17;;;8.90;91.40;;;;;;5090191;28;20465;-81
2022/01/18 15:21:24;;;;;;;30.40;27.37;;;8.80;93.00;;;;;;5091537;28;20479;-82
2022/01/18 15:23:54;;;;;;;43.73;36.77;;;8.70;93.40;;;;;;5091392;28;20453;-82
2022/01/18 15:32:49;;;;;;;97.70;91.63;;;8.10;96.30;;;;;;5075901;28;20541;-81
2022/01/18 15:35:25;;;;;;;132.63;125.53;;;7.80;97.60;;;;;;5077341;28;20462;-82
2022/01/18 15:38:12;;;;;;;109.27;103.63;;;7.70;98.30;;;;;;5078212;28;20482;-83
2022/01/18 15:40:45;;;;;;;108.40;102.47;;;7.60;98.10;;;;;;5078574;28;20478;-82
2022/01/18 15:43:26;;;;;;;146.83;139.13;;;7.50;98.50;;;;;;5077325;28;20503;-82
2022/01/18 15:45:54;;;;;;;245.33;234.67;;;7.40;99.30;;;;;;5077856;28;20892;-81
2022/01/18 15:48:26;;;;;;;308.10;294.57;;;7.20;99.90;;;;;;5077876;28;20473;-79
2022/01/18 15:51:32;;;;;;;343.23;329.43;;;7.20;99.90;;;;;;5081999;28;20518;-82
2022/01/18 15:54:12;;;;;;;295.58;282.83;;;7.20;99.90;;;;;;5075039;28;20456;-83
2022/01/18 15:57:07;;;;;;;264.57;253.67;;;7.10;99.90;;;;;;5059928;28;20203;-83
2022/01/18 15:59:57;;;;;;;289.90;278.07;;;7.10;99.90;;;;;;5054895;28;20541;-82
2022/01/18 16:02:30;;;;;;;289.20;276.57;;;7.10;99.90;;;;;;5016584;28;20534;-83
2022/01/18 16:05:03;;;;;;;282.10;270.60;;;7.20;99.90;;;;;;5058321;28;20444;-82
2022/01/18 16:11:26;;;;;;;308.83;296.43;;;7.00;99.90;;;;;;5060020;28;20462;-83
2022/01/18 16:13:53;;;;;;;353.23;338.83;;;6.90;99.90;;;;;;5059986;28;20436;-83
2022/01/18 16:16:20;;;;;;;423.37;404.73;;;6.90;99.90;;;;;;5065901;28;20447;-83
2022/01/18 16:19:11;;;;;;;490.23;467.50;;;6.80;99.90;;;;;;5073901;28;20887;-82
2022/01/18 16:21:40;;;;;;;492.07;468.57;;;6.70;99.90;;;;;;5064179;28;20470;-82
2022/01/18 16:24:08;;;;;;;476.77;455.00;;;6.60;99.90;;;;;;5064052;28;20533;-82
2022/01/18 16:26:58;;;;;;;532.37;506.27;;;6.60;99.90;;;;;;5065358;28;20538;-83
2022/01/18 16:29:45;;;;;;;566.10;538.33;;;6.50;99.90;;;;;;5064537;28;20541;-83
2022/01/18 16:32:12;;;;;;;595.93;565.67;;;6.40;99.90;;;;;;5058831;28;20451;-82
2022/01/18 16:35:07;;;;;;;579.03;551.10;;;6.40;99.90;;;;;;5061354;28;20482;-82
2022/01/18 16:37:36;;;;;;;610.73;579.23;;;6.20;99.90;;;;;;5063442;28;20461;-82
2022/01/18 16:40:10;;;;;;;677.53;641.53;;;6.30;99.90;;;;;;5067968;28;20496;-82
2022/01/18 16:42:48;;;;;;;665.10;628.67;;;6.30;99.90;;;;;;5063127;28;20457;-82
2022/01/18 16:45:40;;;;;;;659.37;623.77;;;6.20;99.90;;;;;;5057367;28;20490;-83
2022/01/18 16:55:11;;;;;;;;;;;;;;;;;;;;;
2022/01/18 16:57:54;;;;;;;743.10;695.97;;;6.00;99.90;;;;;;5053608;28;20844;-81
2022/01/18 17:00:50;;;;;;;747.20;699.20;;;6.10;99.90;;;;;;5059081;28;20475;-82
2022/01/18 17:03:21;;;;;;;763.33;714.70;;;6.20;99.90;;;;;;5068584;28;20454;-82
2022/01/18 17:05:49;;;;;;;759.27;712.57;;;6.20;99.90;;;;;;5069700;28;20466;-82
2022/01/18 17:08:31;;;;;;;754.93;707.07;;;6.20;99.90;;;;;;5076471;28;20471;-81
2022/01/18 17:20:25;;;;;;;523.40;497.37;;;6.70;99.90;;;;;;5056740;28;21081;-83